sensor_id;sensor_type;location;lat;lon;timestamp;P1;durP1;ratioP1;P2;durP2;ratioP2
6344;SDS011;3205;42.666;23.264;2024-03-02T00:00:29;42.70;;;18.97;;
6344;SDS011;3205;42.666;23.264;2024-03-02T00:02:55;38.37;;;18.17;;
6344;SDS011;3205;42.666;23.264;2024-03-02T00:05:22;35.97;;;19.37;;
6344;SDS011;3205;42.666;23.264;2024-03-02T00:07:52;33.10;;;18.67;;
6344;SDS011;3205;42.666;23.264;2024-03-02T00:10:22;42.63;;;21.13;;
6344;SDS011;3205;42.666;23.264;2024-03-02T00:12:54;34.77;;;19.37;;
6344;SDS011;3205;42.666;23.264;2024-03-02T00:15:28;33.03;;;18.20;;
6344;SDS011;3205;42.666;23.264;2024-03-02T00:18:07;31.90;;;18.50;;
6344;SDS011;3205;42.666;23.264;2024-03-02T00:20:36;35.77;;;18.50;;
6344;SDS011;3205;42.666;23.264;2024-03-02T00:23:02;33.80;;;18.97;;
6344;SDS011;3205;42.666;23.264;2024-03-02T00:25:35;32.17;;;18.67;;
6344;SDS011;3205;42.666;23.264;2024-03-02T00:28:16;33.97;;;18.80;;
6344;SDS011;3205;42.666;23.264;2024-03-02T00:33:28;33.43;;;19.10;;
6344;SDS011;3205;42.666;23.264;2024-03-02T00:35:57;37.03;;;19.17;;
6344;SDS011;3205;42.666;23.264;2024-03-02T00:38:24;39.90;;;20.43;;
6344;SDS011;3205;42.666;23.264;2024-03-02T00:40:52;34.63;;;19.10;;
6344;SDS011;3205;42.666;23.264;2024-03-02T00:46:11;35.03;;;18.50;;
6344;SDS011;3205;42.666;23.264;2024-03-02T00:48:38;39.97;;;20.47;;
6344;SDS011;3205;42.666;23.264;2024-03-02T00:51:11;36.20;;;19.27;;
6344;SDS011;3205;42.666;23.264;2024-03-02T00:53:38;34.27;;;18.67;;
6344;SDS011;3205;42.666;23.264;2024-03-02T00:56:05;40.27;;;20.53;;
6344;SDS011;3205;42.666;23.264;2024-03-02T00:58:36;37.53;;;20.03;;
6344;SDS011;3205;42.666;23.264;2024-03-02T01:01:03;36.23;;;18.90;;
6344;SDS011;3205;42.666;23.264;2024-03-02T01:03:29;40.93;;;20.07;;
6344;SDS011;3205;42.666;23.264;2024-03-02T01:05:56;38.20;;;19.13;;
6344;SDS011;3205;42.666;23.264;2024-03-02T01:08:23;38.40;;;18.97;;
6344;SDS011;3205;42.666;23.264;2024-03-02T01:10:49;38.67;;;17.37;;
6344;SDS011;3205;42.666;23.264;2024-03-02T01:13:16;35.33;;;18.83;;
6344;SDS011;3205;42.666;23.264;2024-03-02T01:15:43;33.00;;;18.03;;
6344;SDS011;3205;42.666;23.264;2024-03-02T01:18:09;40.67;;;19.70;;
6344;SDS011;3205;42.666;23.264;2024-03-02T01:20:35;36.90;;;18.93;;
6344;SDS011;3205;42.666;23.264;2024-03-02T01:23:02;31.63;;;17.83;;
6344;SDS011;3205;42.666;23.264;2024-03-02T01:25:28;35.93;;;19.17;;
6344;SDS011;3205;42.666;23.264;2024-03-02T01:27:55;36.87;;;18.63;;
6344;SDS011;3205;42.666;23.264;2024-03-02T01:30:22;48.03;;;20.30;;
6344;SDS011;3205;42.666;23.264;2024-03-02T01:32:48;42.23;;;20.37;;
6344;SDS011;3205;42.666;23.264;2024-03-02T01:35:14;57.10;;;23.50;;
6344;SDS011;3205;42.666;23.264;2024-03-02T01:37:40;38.73;;;20.57;;
6344;SDS011;3205;42.666;23.264;2024-03-02T01:40:07;40.20;;;21.83;;
6344;SDS011;3205;42.666;23.264;2024-03-02T01:42:35;37.87;;;21.83;;
6344;SDS011;3205;42.666;23.264;2024-03-02T01:45:02;43.67;;;21.47;;
6344;SDS011;3205;42.666;23.264;2024-03-02T01:47:29;39.73;;;21.40;;
6344;SDS011;3205;42.666;23.264;2024-03-02T01:49:55;39.67;;;21.50;;
6344;SDS011;3205;42.666;23.264;2024-03-02T01:52:25;41.43;;;21.63;;
6344;SDS011;3205;42.666;23.264;2024-03-02T01:54:51;45.17;;;20.63;;
6344;SDS011;3205;42.666;23.264;2024-03-02T01:57:17;39.77;;;21.10;;
6344;SDS011;3205;42.666;23.264;2024-03-02T01:59:45;45.57;;;21.13;;
6344;SDS011;3205;42.666;23.264;2024-03-02T02:02:12;40.70;;;20.90;;
6344;SDS011;3205;42.666;23.264;2024-03-02T02:04:39;41.63;;;20.73;;
6344;SDS011;3205;42.666;23.264;2024-03-02T02:07:06;36.43;;;20.40;;
6344;SDS011;3205;42.666;23.264;2024-03-02T02:09:32;42.20;;;21.73;;
6344;SDS011;3205;42.666;23.264;2024-03-02T02:11:58;37.90;;;20.33;;
6344;SDS011;3205;42.666;23.264;2024-03-02T02:14:25;44.67;;;21.07;;
6344;SDS011;3205;42.666;23.264;2024-03-02T02:16:51;39.97;;;20.70;;
6344;SDS011;3205;42.666;23.264;2024-03-02T02:19:18;38.13;;;21.53;;
6344;SDS011;3205;42.666;23.264;2024-03-02T02:21:45;42.00;;;20.93;;
6344;SDS011;3205;42.666;23.264;2024-03-02T02:24:11;39.87;;;22.03;;
6344;SDS011;3205;42.666;23.264;2024-03-02T02:26:38;43.73;;;22.40;;
6344;SDS011;3205;42.666;23.264;2024-03-02T02:29:04;39.80;;;20.40;;
6344;SDS011;3205;42.666;23.264;2024-03-02T02:31:36;37.27;;;20.77;;
6344;SDS011;3205;42.666;23.264;2024-03-02T02:34:03;43.13;;;20.73;;
6344;SDS011;3205;42.666;23.264;2024-03-02T02:36:29;35.33;;;19.53;;
6344;SDS011;3205;42.666;23.264;2024-03-02T02:38:56;40.63;;;20.97;;
6344;SDS011;3205;42.666;23.264;2024-03-02T02:41:24;39.07;;;21.07;;
6344;SDS011;3205;42.666;23.264;2024-03-02T02:43:50;41.07;;;21.10;;
6344;SDS011;3205;42.666;23.264;2024-03-02T02:46:16;46.47;;;21.30;;
6344;SDS011;3205;42.666;23.264;2024-03-02T02:48:43;44.43;;;21.50;;
6344;SDS011;3205;42.666;23.264;2024-03-02T02:51:09;40.57;;;21.37;;
6344;SDS011;3205;42.666;23.264;2024-03-02T02:53:35;38.80;;;20.47;;
6344;SDS011;3205;42.666;23.264;2024-03-02T02:56:06;41.80;;;22.87;;
6344;SDS011;3205;42.666;23.264;2024-03-02T02:58:32;51.67;;;24.40;;
6344;SDS011;3205;42.666;23.264;2024-03-02T03:04:20;54.63;;;24.43;;
6344;SDS011;3205;42.666;23.264;2024-03-02T03:06:46;55.60;;;27.10;;
6344;SDS011;3205;42.666;23.264;2024-03-02T03:09:13;55.20;;;25.10;;
6344;SDS011;3205;42.666;23.264;2024-03-02T03:11:40;51.13;;;26.23;;
6344;SDS011;3205;42.666;23.264;2024-03-02T03:14:06;48.17;;;25.57;;
6344;SDS011;3205;42.666;23.264;2024-03-02T03:16:32;52.93;;;28.23;;
6344;SDS011;3205;42.666;23.264;2024-03-02T03:18:59;50.63;;;26.80;;
6344;SDS011;3205;42.666;23.264;2024-03-02T03:21:25;50.03;;;26.53;;
6344;SDS011;3205;42.666;23.264;2024-03-02T03:23:51;58.60;;;27.27;;
6344;SDS011;3205;42.666;23.264;2024-03-02T03:26:17;59.03;;;27.77;;
6344;SDS011;3205;42.666;23.264;2024-03-02T03:28:44;53.70;;;27.57;;
6344;SDS011;3205;42.666;23.264;2024-03-02T03:31:12;57.60;;;28.70;;
6344;SDS011;3205;42.666;23.264;2024-03-02T03:33:38;56.17;;;27.80;;
6344;SDS011;3205;42.666;23.264;2024-03-02T03:36:04;52.67;;;27.07;;
6344;SDS011;3205;42.666;23.264;2024-03-02T03:38:31;50.30;;;27.43;;
6344;SDS011;3205;42.666;23.264;2024-03-02T03:40:59;60.53;;;27.97;;
6344;SDS011;3205;42.666;23.264;2024-03-02T03:43:25;60.40;;;29.03;;
6344;SDS011;3205;42.666;23.264;2024-03-02T03:45:52;57.13;;;28.07;;
6344;SDS011;3205;42.666;23.264;2024-03-02T03:48:18;58.97;;;27.83;;
6344;SDS011;3205;42.666;23.264;2024-03-02T03:50:45;64.67;;;29.60;;
6344;SDS011;3205;42.666;23.264;2024-03-02T03:53:11;60.63;;;30.13;;
6344;SDS011;3205;42.666;23.264;2024-03-02T03:55:39;52.13;;;26.97;;
6344;SDS011;3205;42.666;23.264;2024-03-02T03:58:06;60.43;;;28.50;;
6344;SDS011;3205;42.666;23.264;2024-03-02T04:00:32;58.47;;;29.27;;
6344;SDS011;3205;42.666;23.264;2024-03-02T04:02:59;61.67;;;29.90;;
6344;SDS011;3205;42.666;23.264;2024-03-02T04:05:25;56.07;;;27.90;;
6344;SDS011;3205;42.666;23.264;2024-03-02T04:07:52;59.13;;;28.17;;
6344;SDS011;3205;42.666;23.264;2024-03-02T04:10:18;58.30;;;28.30;;
6344;SDS011;3205;42.666;23.264;2024-03-02T04:12:46;67.20;;;29.23;;
6344;SDS011;3205;42.666;23.264;2024-03-02T04:15:12;55.70;;;28.70;;
6344;SDS011;3205;42.666;23.264;2024-03-02T04:17:38;58.80;;;30.83;;
6344;SDS011;3205;42.666;23.264;2024-03-02T04:20:06;58.40;;;29.57;;
6344;SDS011;3205;42.666;23.264;2024-03-02T04:22:33;65.33;;;29.90;;
6344;SDS011;3205;42.666;23.264;2024-03-02T04:25:00;67.00;;;31.83;;
6344;SDS011;3205;42.666;23.264;2024-03-02T04:27:26;65.17;;;30.30;;
6344;SDS011;3205;42.666;23.264;2024-03-02T04:29:53;65.83;;;32.17;;
6344;SDS011;3205;42.666;23.264;2024-03-02T04:32:19;62.03;;;30.57;;
6344;SDS011;3205;42.666;23.264;2024-03-02T04:34:45;60.83;;;29.93;;
6344;SDS011;3205;42.666;23.264;2024-03-02T04:37:12;59.90;;;29.57;;
6344;SDS011;3205;42.666;23.264;2024-03-02T04:39:39;59.67;;;30.50;;
6344;SDS011;3205;42.666;23.264;2024-03-02T04:42:05;58.97;;;29.33;;
6344;SDS011;3205;42.666;23.264;2024-03-02T04:44:32;67.03;;;31.10;;
6344;SDS011;3205;42.666;23.264;2024-03-02T04:46:58;64.07;;;31.70;;
6344;SDS011;3205;42.666;23.264;2024-03-02T04:49:24;61.63;;;30.70;;
6344;SDS011;3205;42.666;23.264;2024-03-02T04:51:50;67.37;;;30.67;;
6344;SDS011;3205;42.666;23.264;2024-03-02T04:54:17;65.63;;;31.37;;
6344;SDS011;3205;42.666;23.264;2024-03-02T04:56:44;61.80;;;29.97;;
6344;SDS011;3205;42.666;23.264;2024-03-02T04:59:14;70.07;;;30.30;;
6344;SDS011;3205;42.666;23.264;2024-03-02T05:01:40;61.77;;;31.27;;
6344;SDS011;3205;42.666;23.264;2024-03-02T05:04:07;75.93;;;32.60;;
6344;SDS011;3205;42.666;23.264;2024-03-02T05:06:33;66.10;;;32.70;;
6344;SDS011;3205;42.666;23.264;2024-03-02T05:08:59;70.03;;;31.77;;
6344;SDS011;3205;42.666;23.264;2024-03-02T05:11:26;67.50;;;33.43;;
6344;SDS011;3205;42.666;23.264;2024-03-02T05:14:10;71.73;;;33.13;;
6344;SDS011;3205;42.666;23.264;2024-03-02T05:16:36;64.90;;;31.80;;
6344;SDS011;3205;42.666;23.264;2024-03-02T05:19:07;69.40;;;32.73;;
6344;SDS011;3205;42.666;23.264;2024-03-02T05:21:33;68.07;;;32.77;;
6344;SDS011;3205;42.666;23.264;2024-03-02T05:24:00;71.47;;;31.63;;
6344;SDS011;3205;42.666;23.264;2024-03-02T05:26:27;66.27;;;31.20;;
6344;SDS011;3205;42.666;23.264;2024-03-02T05:28:53;69.53;;;33.93;;
6344;SDS011;3205;42.666;23.264;2024-03-02T05:31:20;76.83;;;34.07;;
6344;SDS011;3205;42.666;23.264;2024-03-02T05:33:46;72.73;;;32.40;;
6344;SDS011;3205;42.666;23.264;2024-03-02T05:36:12;65.07;;;31.40;;
6344;SDS011;3205;42.666;23.264;2024-03-02T05:38:41;72.23;;;34.13;;
6344;SDS011;3205;42.666;23.264;2024-03-02T05:41:08;65.20;;;31.33;;
6344;SDS011;3205;42.666;23.264;2024-03-02T05:43:35;72.07;;;32.93;;
6344;SDS011;3205;42.666;23.264;2024-03-02T05:46:01;72.40;;;31.83;;
6344;SDS011;3205;42.666;23.264;2024-03-02T05:48:28;69.63;;;32.97;;
6344;SDS011;3205;42.666;23.264;2024-03-02T05:50:54;71.13;;;30.53;;
6344;SDS011;3205;42.666;23.264;2024-03-02T05:53:21;66.73;;;33.50;;
6344;SDS011;3205;42.666;23.264;2024-03-02T05:55:48;73.93;;;33.00;;
6344;SDS011;3205;42.666;23.264;2024-03-02T05:58:20;70.57;;;33.87;;
6344;SDS011;3205;42.666;23.264;2024-03-02T06:00:57;76.47;;;34.63;;
6344;SDS011;3205;42.666;23.264;2024-03-02T06:03:23;71.67;;;33.23;;
6344;SDS011;3205;42.666;23.264;2024-03-02T06:05:49;75.07;;;32.63;;
6344;SDS011;3205;42.666;23.264;2024-03-02T06:08:16;70.20;;;32.67;;
6344;SDS011;3205;42.666;23.264;2024-03-02T06:10:43;62.73;;;32.43;;
6344;SDS011;3205;42.666;23.264;2024-03-02T06:13:09;72.40;;;32.17;;
6344;SDS011;3205;42.666;23.264;2024-03-02T06:15:35;73.13;;;32.27;;
6344;SDS011;3205;42.666;23.264;2024-03-02T06:18:03;72.77;;;33.43;;
6344;SDS011;3205;42.666;23.264;2024-03-02T06:20:29;75.43;;;34.27;;
6344;SDS011;3205;42.666;23.264;2024-03-02T06:22:56;74.63;;;34.53;;
6344;SDS011;3205;42.666;23.264;2024-03-02T06:25:22;70.27;;;34.37;;
6344;SDS011;3205;42.666;23.264;2024-03-02T06:27:48;67.57;;;33.07;;
6344;SDS011;3205;42.666;23.264;2024-03-02T06:30:15;69.87;;;33.57;;
6344;SDS011;3205;42.666;23.264;2024-03-02T06:32:41;74.10;;;34.67;;
6344;SDS011;3205;42.666;23.264;2024-03-02T06:35:08;71.97;;;34.10;;
6344;SDS011;3205;42.666;23.264;2024-03-02T06:37:35;76.23;;;33.03;;
6344;SDS011;3205;42.666;23.264;2024-03-02T06:40:01;72.03;;;33.50;;
6344;SDS011;3205;42.666;23.264;2024-03-02T06:42:28;76.03;;;34.73;;
6344;SDS011;3205;42.666;23.264;2024-03-02T06:44:58;76.30;;;35.13;;
6344;SDS011;3205;42.666;23.264;2024-03-02T06:47:24;74.30;;;32.70;;
6344;SDS011;3205;42.666;23.264;2024-03-02T06:49:50;72.37;;;34.57;;
6344;SDS011;3205;42.666;23.264;2024-03-02T06:52:18;68.50;;;33.37;;
6344;SDS011;3205;42.666;23.264;2024-03-02T06:54:45;73.27;;;35.40;;
6344;SDS011;3205;42.666;23.264;2024-03-02T06:57:12;72.63;;;34.90;;
6344;SDS011;3205;42.666;23.264;2024-03-02T06:59:38;78.10;;;35.00;;
6344;SDS011;3205;42.666;23.264;2024-03-02T07:02:04;79.60;;;35.00;;
6344;SDS011;3205;42.666;23.264;2024-03-02T07:04:30;66.13;;;31.93;;
6344;SDS011;3205;42.666;23.264;2024-03-02T07:06:57;69.23;;;33.27;;
6344;SDS011;3205;42.666;23.264;2024-03-02T07:09:24;64.40;;;30.40;;
6344;SDS011;3205;42.666;23.264;2024-03-02T07:11:51;60.53;;;29.47;;
6344;SDS011;3205;42.666;23.264;2024-03-02T07:14:17;51.07;;;23.47;;
6344;SDS011;3205;42.666;23.264;2024-03-02T07:16:43;51.70;;;26.37;;
6344;SDS011;3205;42.666;23.264;2024-03-02T07:19:10;54.03;;;25.17;;
6344;SDS011;3205;42.666;23.264;2024-03-02T07:21:36;49.07;;;24.40;;
6344;SDS011;3205;42.666;23.264;2024-03-02T07:24:03;51.57;;;23.40;;
6344;SDS011;3205;42.666;23.264;2024-03-02T07:26:30;46.13;;;22.60;;
6344;SDS011;3205;42.666;23.264;2024-03-02T07:28:56;39.27;;;20.40;;
6344;SDS011;3205;42.666;23.264;2024-03-02T07:31:23;38.60;;;19.47;;
6344;SDS011;3205;42.666;23.264;2024-03-02T07:33:49;33.87;;;17.70;;
6344;SDS011;3205;42.666;23.264;2024-03-02T07:36:15;39.17;;;19.00;;
6344;SDS011;3205;42.666;23.264;2024-03-02T07:38:42;40.33;;;20.90;;
6344;SDS011;3205;42.666;23.264;2024-03-02T07:41:09;35.50;;;18.57;;
6344;SDS011;3205;42.666;23.264;2024-03-02T07:43:37;40.47;;;20.37;;
6344;SDS011;3205;42.666;23.264;2024-03-02T07:46:03;38.77;;;20.53;;
6344;SDS011;3205;42.666;23.264;2024-03-02T07:48:29;38.50;;;21.23;;
6344;SDS011;3205;42.666;23.264;2024-03-02T07:50:56;39.40;;;19.73;;
6344;SDS011;3205;42.666;23.264;2024-03-02T07:53:22;45.33;;;20.43;;
6344;SDS011;3205;42.666;23.264;2024-03-02T07:55:49;42.90;;;19.37;;
6344;SDS011;3205;42.666;23.264;2024-03-02T07:58:15;42.83;;;20.20;;
6344;SDS011;3205;42.666;23.264;2024-03-02T08:00:44;41.40;;;20.77;;
6344;SDS011;3205;42.666;23.264;2024-03-02T08:03:10;38.30;;;21.27;;
6344;SDS011;3205;42.666;23.264;2024-03-02T08:05:37;41.30;;;20.33;;
6344;SDS011;3205;42.666;23.264;2024-03-02T08:08:03;45.07;;;22.03;;
6344;SDS011;3205;42.666;23.264;2024-03-02T08:10:30;45.17;;;23.20;;
6344;SDS011;3205;42.666;23.264;2024-03-02T08:12:56;49.00;;;23.70;;
6344;SDS011;3205;42.666;23.264;2024-03-02T08:15:23;47.40;;;22.97;;
6344;SDS011;3205;42.666;23.264;2024-03-02T08:17:50;52.67;;;24.40;;
6344;SDS011;3205;42.666;23.264;2024-03-02T08:20:16;50.83;;;22.93;;
6344;SDS011;3205;42.666;23.264;2024-03-02T08:22:42;51.47;;;22.70;;
6344;SDS011;3205;42.666;23.264;2024-03-02T08:25:11;51.50;;;24.70;;
6344;SDS011;3205;42.666;23.264;2024-03-02T08:27:40;58.07;;;25.27;;
6344;SDS011;3205;42.666;23.264;2024-03-02T08:30:06;61.00;;;27.07;;
6344;SDS011;3205;42.666;23.264;2024-03-02T08:32:34;49.90;;;24.30;;
6344;SDS011;3205;42.666;23.264;2024-03-02T08:35:01;51.27;;;24.13;;
6344;SDS011;3205;42.666;23.264;2024-03-02T08:37:28;49.57;;;24.67;;
6344;SDS011;3205;42.666;23.264;2024-03-02T08:39:55;49.73;;;24.47;;
6344;SDS011;3205;42.666;23.264;2024-03-02T08:42:21;53.90;;;25.37;;
6344;SDS011;3205;42.666;23.264;2024-03-02T08:44:48;58.80;;;24.27;;
6344;SDS011;3205;42.666;23.264;2024-03-02T08:47:14;45.63;;;23.37;;
6344;SDS011;3205;42.666;23.264;2024-03-02T08:49:41;42.20;;;21.87;;
6344;SDS011;3205;42.666;23.264;2024-03-02T08:52:08;42.43;;;21.93;;
6344;SDS011;3205;42.666;23.264;2024-03-02T08:54:35;47.77;;;23.90;;
6344;SDS011;3205;42.666;23.264;2024-03-02T08:57:01;48.37;;;23.47;;
6344;SDS011;3205;42.666;23.264;2024-03-02T08:59:27;51.60;;;23.80;;
6344;SDS011;3205;42.666;23.264;2024-03-02T09:01:54;50.43;;;22.77;;
6344;SDS011;3205;42.666;23.264;2024-03-02T09:04:20;48.17;;;22.63;;
6344;SDS011;3205;42.666;23.264;2024-03-02T09:06:47;39.60;;;20.10;;
6344;SDS011;3205;42.666;23.264;2024-03-02T09:09:14;35.87;;;19.53;;
6344;SDS011;3205;42.666;23.264;2024-03-02T09:11:40;40.03;;;19.03;;
6344;SDS011;3205;42.666;23.264;2024-03-02T09:14:06;39.77;;;20.60;;
6344;SDS011;3205;42.666;23.264;2024-03-02T09:16:33;37.03;;;19.60;;
6344;SDS011;3205;42.666;23.264;2024-03-02T09:19:00;35.80;;;19.57;;
6344;SDS011;3205;42.666;23.264;2024-03-02T09:21:26;33.93;;;19.53;;
6344;SDS011;3205;42.666;23.264;2024-03-02T09:23:52;35.77;;;17.93;;
6344;SDS011;3205;42.666;23.264;2024-03-02T09:26:19;30.17;;;16.27;;
6344;SDS011;3205;42.666;23.264;2024-03-02T09:28:46;36.20;;;18.10;;
6344;SDS011;3205;42.666;23.264;2024-03-02T09:31:12;31.60;;;17.40;;
6344;SDS011;3205;42.666;23.264;2024-03-02T09:33:38;38.23;;;19.43;;
6344;SDS011;3205;42.666;23.264;2024-03-02T09:36:05;37.47;;;18.50;;
6344;SDS011;3205;42.666;23.264;2024-03-02T09:38:31;33.87;;;17.00;;
6344;SDS011;3205;42.666;23.264;2024-03-02T09:40:58;38.00;;;18.50;;
6344;SDS011;3205;42.666;23.264;2024-03-02T09:43:26;34.57;;;18.63;;
6344;SDS011;3205;42.666;23.264;2024-03-02T09:45:53;35.57;;;18.97;;
6344;SDS011;3205;42.666;23.264;2024-03-02T09:48:19;36.23;;;19.13;;
6344;SDS011;3205;42.666;23.264;2024-03-02T09:50:45;40.80;;;20.63;;
6344;SDS011;3205;42.666;23.264;2024-03-02T09:53:12;44.67;;;20.67;;
6344;SDS011;3205;42.666;23.264;2024-03-02T09:55:40;40.90;;;20.83;;
6344;SDS011;3205;42.666;23.264;2024-03-02T09:58:09;38.80;;;20.87;;
6344;SDS011;3205;42.666;23.264;2024-03-02T10:00:36;35.43;;;19.73;;
6344;SDS011;3205;42.666;23.264;2024-03-02T10:03:02;40.43;;;21.43;;
6344;SDS011;3205;42.666;23.264;2024-03-02T10:05:30;39.97;;;20.83;;
6344;SDS011;3205;42.666;23.264;2024-03-02T10:08:00;43.73;;;22.27;;
6344;SDS011;3205;42.666;23.264;2024-03-02T10:10:34;36.37;;;20.50;;
6344;SDS011;3205;42.666;23.264;2024-03-02T10:13:05;35.57;;;21.50;;
6344;SDS011;3205;42.666;23.264;2024-03-02T10:15:32;42.00;;;22.30;;
6344;SDS011;3205;42.666;23.264;2024-03-02T10:17:59;44.73;;;20.40;;
6344;SDS011;3205;42.666;23.264;2024-03-02T10:20:26;40.30;;;20.77;;
6344;SDS011;3205;42.666;23.264;2024-03-02T10:22:54;37.40;;;21.13;;
6344;SDS011;3205;42.666;23.264;2024-03-02T10:25:30;48.67;;;23.40;;
6344;SDS011;3205;42.666;23.264;2024-03-02T10:27:57;46.27;;;23.73;;
6344;SDS011;3205;42.666;23.264;2024-03-02T10:30:24;44.00;;;22.77;;
6344;SDS011;3205;42.666;23.264;2024-03-02T10:32:50;42.23;;;22.07;;
6344;SDS011;3205;42.666;23.264;2024-03-02T10:35:19;46.93;;;22.37;;
6344;SDS011;3205;42.666;23.264;2024-03-02T10:37:47;45.07;;;24.07;;
6344;SDS011;3205;42.666;23.264;2024-03-02T10:40:13;45.37;;;24.03;;
6344;SDS011;3205;42.666;23.264;2024-03-02T10:42:40;54.63;;;27.00;;
6344;SDS011;3205;42.666;23.264;2024-03-02T10:45:08;57.70;;;28.53;;
6344;SDS011;3205;42.666;23.264;2024-03-02T10:47:35;68.20;;;36.17;;
6344;SDS011;3205;42.666;23.264;2024-03-02T10:50:03;64.27;;;33.27;;
6344;SDS011;3205;42.666;23.264;2024-03-02T10:52:34;57.23;;;30.70;;
6344;SDS011;3205;42.666;23.264;2024-03-02T10:55:00;65.10;;;35.60;;
6344;SDS011;3205;42.666;23.264;2024-03-02T10:57:26;63.93;;;33.47;;
6344;SDS011;3205;42.666;23.264;2024-03-02T11:00:00;61.73;;;32.27;;
6344;SDS011;3205;42.666;23.264;2024-03-02T11:02:28;64.20;;;32.40;;
6344;SDS011;3205;42.666;23.264;2024-03-02T11:04:57;64.07;;;33.13;;
6344;SDS011;3205;42.666;23.264;2024-03-02T11:07:27;75.17;;;33.43;;
6344;SDS011;3205;42.666;23.264;2024-03-02T11:09:58;64.33;;;31.87;;
6344;SDS011;3205;42.666;23.264;2024-03-02T11:12:35;58.90;;;30.30;;
6344;SDS011;3205;42.666;23.264;2024-03-02T11:15:04;56.70;;;28.67;;
6344;SDS011;3205;42.666;23.264;2024-03-02T11:17:36;55.50;;;27.93;;
6344;SDS011;3205;42.666;23.264;2024-03-02T11:20:04;52.10;;;27.40;;
6344;SDS011;3205;42.666;23.264;2024-03-02T11:22:33;50.03;;;25.53;;
6344;SDS011;3205;42.666;23.264;2024-03-02T11:25:02;50.57;;;26.87;;
6344;SDS011;3205;42.666;23.264;2024-03-02T11:33:15;54.43;;;27.27;;
6344;SDS011;3205;42.666;23.264;2024-03-02T11:35:49;50.40;;;24.10;;
6344;SDS011;3205;42.666;23.264;2024-03-02T11:38:16;47.23;;;23.30;;
6344;SDS011;3205;42.666;23.264;2024-03-02T11:40:44;47.73;;;23.37;;
6344;SDS011;3205;42.666;23.264;2024-03-02T11:43:11;51.70;;;25.90;;
6344;SDS011;3205;42.666;23.264;2024-03-02T11:45:38;48.00;;;24.40;;
6344;SDS011;3205;42.666;23.264;2024-03-02T11:48:09;46.80;;;24.27;;
6344;SDS011;3205;42.666;23.264;2024-03-02T11:50:40;47.27;;;23.73;;
6344;SDS011;3205;42.666;23.264;2024-03-02T11:53:07;58.10;;;25.57;;
6344;SDS011;3205;42.666;23.264;2024-03-02T11:55:35;47.83;;;24.13;;
6344;SDS011;3205;42.666;23.264;2024-03-02T11:58:04;42.17;;;24.47;;
6344;SDS011;3205;42.666;23.264;2024-03-02T12:00:30;48.40;;;23.97;;
6344;SDS011;3205;42.666;23.264;2024-03-02T12:03:02;49.27;;;24.43;;
6344;SDS011;3205;42.666;23.264;2024-03-02T12:05:30;42.27;;;22.27;;
6344;SDS011;3205;42.666;23.264;2024-03-02T12:07:57;48.03;;;23.90;;
6344;SDS011;3205;42.666;23.264;2024-03-02T12:10:23;43.03;;;23.33;;
6344;SDS011;3205;42.666;23.264;2024-03-02T12:12:55;48.83;;;23.03;;
6344;SDS011;3205;42.666;23.264;2024-03-02T12:15:23;45.03;;;23.10;;
6344;SDS011;3205;42.666;23.264;2024-03-02T12:17:52;44.23;;;24.40;;
6344;SDS011;3205;42.666;23.264;2024-03-02T12:20:20;45.80;;;23.83;;
6344;SDS011;3205;42.666;23.264;2024-03-02T12:22:46;46.67;;;23.33;;
6344;SDS011;3205;42.666;23.264;2024-03-02T12:25:12;39.53;;;22.60;;
6344;SDS011;3205;42.666;23.264;2024-03-02T12:27:39;44.53;;;24.77;;
6344;SDS011;3205;42.666;23.264;2024-03-02T12:30:06;45.03;;;24.30;;
6344;SDS011;3205;42.666;23.264;2024-03-02T12:32:36;43.73;;;22.67;;
6344;SDS011;3205;42.666;23.264;2024-03-02T12:35:04;45.77;;;23.90;;
6344;SDS011;3205;42.666;23.264;2024-03-02T12:37:31;38.93;;;23.00;;
6344;SDS011;3205;42.666;23.264;2024-03-02T12:39:58;43.40;;;22.70;;
6344;SDS011;3205;42.666;23.264;2024-03-02T12:42:25;39.50;;;22.57;;
6344;SDS011;3205;42.666;23.264;2024-03-02T12:44:51;43.17;;;23.67;;
6344;SDS011;3205;42.666;23.264;2024-03-02T12:47:19;41.47;;;22.63;;
6344;SDS011;3205;42.666;23.264;2024-03-02T12:49:46;39.57;;;22.10;;
6344;SDS011;3205;42.666;23.264;2024-03-02T12:52:14;44.37;;;22.77;;
6344;SDS011;3205;42.666;23.264;2024-03-02T12:54:41;39.80;;;22.77;;
6344;SDS011;3205;42.666;23.264;2024-03-02T12:57:07;43.53;;;23.67;;
6344;SDS011;3205;42.666;23.264;2024-03-02T12:59:33;40.83;;;23.53;;
6344;SDS011;3205;42.666;23.264;2024-03-02T13:02:02;46.60;;;24.20;;
6344;SDS011;3205;42.666;23.264;2024-03-02T13:04:28;42.73;;;23.90;;
6344;SDS011;3205;42.666;23.264;2024-03-02T13:06:56;36.67;;;22.23;;
6344;SDS011;3205;42.666;23.264;2024-03-02T13:09:23;42.10;;;22.90;;
6344;SDS011;3205;42.666;23.264;2024-03-02T13:11:50;42.10;;;22.20;;
6344;SDS011;3205;42.666;23.264;2024-03-02T13:14:16;42.83;;;22.43;;
6344;SDS011;3205;42.666;23.264;2024-03-02T13:16:43;42.13;;;22.43;;
6344;SDS011;3205;42.666;23.264;2024-03-02T13:19:11;44.50;;;23.53;;
6344;SDS011;3205;42.666;23.264;2024-03-02T13:21:37;47.80;;;25.43;;
6344;SDS011;3205;42.666;23.264;2024-03-02T13:24:05;49.77;;;24.73;;
6344;SDS011;3205;42.666;23.264;2024-03-02T13:26:32;41.53;;;23.80;;
6344;SDS011;3205;42.666;23.264;2024-03-02T13:29:01;47.30;;;24.70;;
6344;SDS011;3205;42.666;23.264;2024-03-02T13:31:28;48.43;;;24.40;;
6344;SDS011;3205;42.666;23.264;2024-03-02T13:33:54;44.87;;;23.90;;
6344;SDS011;3205;42.666;23.264;2024-03-02T13:36:20;46.27;;;23.93;;
6344;SDS011;3205;42.666;23.264;2024-03-02T13:38:47;48.07;;;24.20;;
6344;SDS011;3205;42.666;23.264;2024-03-02T13:41:14;47.23;;;26.27;;
6344;SDS011;3205;42.666;23.264;2024-03-02T13:43:40;45.40;;;24.20;;
6344;SDS011;3205;42.666;23.264;2024-03-02T13:46:07;47.03;;;26.00;;
6344;SDS011;3205;42.666;23.264;2024-03-02T13:48:34;41.60;;;25.07;;
6344;SDS011;3205;42.666;23.264;2024-03-02T13:51:01;47.07;;;25.23;;
6344;SDS011;3205;42.666;23.264;2024-03-02T13:53:28;42.43;;;24.43;;
6344;SDS011;3205;42.666;23.264;2024-03-02T13:55:54;42.30;;;24.60;;
6344;SDS011;3205;42.666;23.264;2024-03-02T13:58:21;42.43;;;23.70;;
6344;SDS011;3205;42.666;23.264;2024-03-02T14:00:48;47.27;;;26.00;;
6344;SDS011;3205;42.666;23.264;2024-03-02T14:03:14;45.33;;;25.57;;
6344;SDS011;3205;42.666;23.264;2024-03-02T14:05:41;45.27;;;24.40;;
6344;SDS011;3205;42.666;23.264;2024-03-02T14:08:08;44.33;;;25.63;;
6344;SDS011;3205;42.666;23.264;2024-03-02T14:10:35;43.03;;;24.33;;
6344;SDS011;3205;42.666;23.264;2024-03-02T14:13:01;48.10;;;26.27;;
6344;SDS011;3205;42.666;23.264;2024-03-02T14:15:28;48.33;;;26.13;;
6344;SDS011;3205;42.666;23.264;2024-03-02T14:17:55;41.50;;;24.00;;
6344;SDS011;3205;42.666;23.264;2024-03-02T14:20:22;43.40;;;25.27;;
6344;SDS011;3205;42.666;23.264;2024-03-02T14:22:49;52.23;;;26.57;;
6344;SDS011;3205;42.666;23.264;2024-03-02T14:25:15;43.37;;;25.67;;
6344;SDS011;3205;42.666;23.264;2024-03-02T14:27:42;45.73;;;24.13;;
6344;SDS011;3205;42.666;23.264;2024-03-02T14:30:08;41.73;;;24.27;;
6344;SDS011;3205;42.666;23.264;2024-03-02T14:32:36;45.60;;;26.53;;
6344;SDS011;3205;42.666;23.264;2024-03-02T14:35:02;41.70;;;24.13;;
6344;SDS011;3205;42.666;23.264;2024-03-02T14:37:29;43.60;;;25.23;;
6344;SDS011;3205;42.666;23.264;2024-03-02T14:39:56;43.47;;;25.43;;
6344;SDS011;3205;42.666;23.264;2024-03-02T14:42:22;44.53;;;24.57;;
6344;SDS011;3205;42.666;23.264;2024-03-02T14:44:48;45.97;;;24.70;;
6344;SDS011;3205;42.666;23.264;2024-03-02T14:47:14;40.40;;;23.77;;